Skip Navigation Links
NOAA logo - Click to go to the NOAA homepage
NOAA's National Weather Service
Alaska Aviation Weather Unit
  NWS logo - Click to go to the NWS homepage
Left Navbar Graphic     12 AKDT = 20 GMT

   
NOAA is celebrating 200 years of science, service, and stewardship. Visit the NOAA 200th celebration Web site to learn more.
USA.gov is the U.S. Government's official Web portal to all Federal, state and local government Web resources and services.
Facebook
NWS on Facebook

Important Change Regarding the AAWU Web Presence

 

Over the last several months, the AAWU has been working to navigate its webpages to a nationally supported server. Security, as well as other needs, have necessitated the change.  We have been given an extension for the site changeover while we diligently work at addressing feedback received. As of July 14, 2017, aawu.arh.noaa.gov will be discontinued. The new AAWU web address is weather.gov/aawu. It is now live and will run in-parallel with the old site until it is discontinued on July 14, 2017. Please continue to send any feedback or questions regarding the new webpages to nws.ar.aawu.webauthors@noaa.gov.  Thank you for your patience during this time of transition.
AAWU Home :: Display TAF Add Bookmark
METAR PANN 251453Z AUTO 00000KT 10SM -RA BKN031 OVC049 14/12 A2995 RMK
     AO2 RAB16 SLP146 P0000 60000 T01390117 55003 TSNO=

METAR PANN 251553Z AUTO VRB03KT 10SM SCT038 BKN080 OVC100 14/12 A2994
     RMK AO2 RAE10 SLP145 P0000 T01390122 TSNO=

PANN 251653Z AUTO 00000KT 10SM FEW049 SCT065 OVC100 14/12 A2993
     RMK AO2 SLP142 T01440122 TSNO=

METAR PANN 251753Z AUTO VRB03KT 10SM BKN034 OVC050 16/12 A2993 RMK AO2
     RAB1658E30 SLP140 P0000 60000 T01560117 10156 20133 57005
     TSNO=

METAR PANN 251853Z AUTO 23005KT 10SM OVC050 16/12 A2992 RMK AO2 RAB15E25
     SLP137 P0000 T01560117 TSNO=

METAR PANN 251953Z AUTO 22004KT 10SM OVC050 16/12 A2991 RMK AO2 SLP134
     T01610117 TSNO=


NOAA's National Weather Service
Alaska Aviation Weather Unit
6930 Sand Lake Road
Anchorage, AK 99502-1845
Disclaimer
Credits
Glossary
Privacy Policy
About Us
Career Opportunities
Contact AAWU Internet Services Site last modified: April, 17th 2012